sensor_id;sensor_type;location;lat;lon;timestamp;temperature;humidity
7399;DHT22;3740;50.700;7.184;2023-06-19T00:00:07;20.90;99.90
7399;DHT22;3740;50.700;7.184;2023-06-19T00:02:42;20.90;99.90
7399;DHT22;3740;50.700;7.184;2023-06-19T00:05:08;20.90;99.90
7399;DHT22;3740;50.700;7.184;2023-06-19T00:07:38;20.80;99.90
7399;DHT22;3740;50.700;7.184;2023-06-19T00:10:05;20.80;99.90
7399;DHT22;3740;50.700;7.184;2023-06-19T00:12:31;20.80;99.90
7399;DHT22;3740;50.700;7.184;2023-06-19T00:14:57;20.70;99.90
7399;DHT22;3740;50.700;7.184;2023-06-19T00:17:22;20.70;99.90
7399;DHT22;3740;50.700;7.184;2023-06-19T00:19:52;20.70;99.90
7399;DHT22;3740;50.700;7.184;2023-06-19T00:22:17;20.80;99.90
7399;DHT22;3740;50.700;7.184;2023-06-19T00:24:43;20.80;99.90
7399;DHT22;3740;50.700;7.184;2023-06-19T00:27:08;20.80;99.90
7399;DHT22;3740;50.700;7.184;2023-06-19T00:29:34;20.80;99.90
7399;DHT22;3740;50.700;7.184;2023-06-19T00:32:00;20.70;99.90
7399;DHT22;3740;50.700;7.184;2023-06-19T00:34:25;20.70;99.90
7399;DHT22;3740;50.700;7.184;2023-06-19T00:36:52;20.60;99.90
7399;DHT22;3740;50.700;7.184;2023-06-19T00:39:22;20.60;99.90
7399;DHT22;3740;50.700;7.184;2023-06-19T00:41:47;20.60;99.90
7399;DHT22;3740;50.700;7.184;2023-06-19T00:44:13;20.60;99.90
7399;DHT22;3740;50.700;7.184;2023-06-19T00:46:40;20.60;99.90
7399;DHT22;3740;50.700;7.184;2023-06-19T00:49:07;20.50;99.90
7399;DHT22;3740;50.700;7.184;2023-06-19T00:51:32;20.50;99.90
7399;DHT22;3740;50.700;7.184;2023-06-19T00:53:58;20.50;99.90
7399;DHT22;3740;50.700;7.184;2023-06-19T00:56:25;20.50;99.90
7399;DHT22;3740;50.700;7.184;2023-06-19T00:58:52;20.50;99.90
7399;DHT22;3740;50.700;7.184;2023-06-19T01:01:19;20.50;99.90
7399;DHT22;3740;50.700;7.184;2023-06-19T01:03:47;20.40;99.90
7399;DHT22;3740;50.700;7.184;2023-06-19T01:06:20;20.40;99.90
7399;DHT22;3740;50.700;7.184;2023-06-19T01:09:02;20.50;99.90
7399;DHT22;3740;50.700;7.184;2023-06-19T01:11:42;20.50;99.90
7399;DHT22;3740;50.700;7.184;2023-06-19T01:14:18;20.50;99.90
7399;DHT22;3740;50.700;7.184;2023-06-19T01:16:45;20.50;99.90
7399;DHT22;3740;50.700;7.184;2023-06-19T01:19:15;20.50;99.90
7399;DHT22;3740;50.700;7.184;2023-06-19T01:21:43;20.50;99.90
7399;DHT22;3740;50.700;7.184;2023-06-19T01:24:08;20.50;99.90
7399;DHT22;3740;50.700;7.184;2023-06-19T01:26:34;20.50;99.90
7399;DHT22;3740;50.700;7.184;2023-06-19T01:29:00;20.60;99.90
7399;DHT22;3740;50.700;7.184;2023-06-19T01:31:33;20.50;99.90
7399;DHT22;3740;50.700;7.184;2023-06-19T01:34:01;20.50;99.90
7399;DHT22;3740;50.700;7.184;2023-06-19T01:36:29;20.50;99.90
7399;DHT22;3740;50.700;7.184;2023-06-19T01:38:57;20.50;99.90
7399;DHT22;3740;50.700;7.184;2023-06-19T01:41:24;20.50;99.90
7399;DHT22;3740;50.700;7.184;2023-06-19T01:43:53;20.50;99.90
7399;DHT22;3740;50.700;7.184;2023-06-19T01:46:19;20.50;99.90
7399;DHT22;3740;50.700;7.184;2023-06-19T01:48:44;20.60;99.90
7399;DHT22;3740;50.700;7.184;2023-06-19T01:51:10;20.90;99.90
7399;DHT22;3740;50.700;7.184;2023-06-19T01:53:36;21.00;99.90
7399;DHT22;3740;50.700;7.184;2023-06-19T01:56:02;21.10;99.90
7399;DHT22;3740;50.700;7.184;2023-06-19T01:58:28;21.10;99.90
7399;DHT22;3740;50.700;7.184;2023-06-19T02:00:53;21.10;99.90
7399;DHT22;3740;50.700;7.184;2023-06-19T02:03:19;21.10;99.90
7399;DHT22;3740;50.700;7.184;2023-06-19T02:05:44;21.10;99.90
7399;DHT22;3740;50.700;7.184;2023-06-19T02:08:10;21.10;99.90
7399;DHT22;3740;50.700;7.184;2023-06-19T02:10:36;21.10;99.90
7399;DHT22;3740;50.700;7.184;2023-06-19T02:13:01;21.10;99.90
7399;DHT22;3740;50.700;7.184;2023-06-19T02:15:27;21.10;99.90
7399;DHT22;3740;50.700;7.184;2023-06-19T02:17:55;21.10;99.90
7399;DHT22;3740;50.700;7.184;2023-06-19T02:20:22;21.20;99.90
7399;DHT22;3740;50.700;7.184;2023-06-19T02:22:47;21.20;99.90
7399;DHT22;3740;50.700;7.184;2023-06-19T02:25:13;21.20;99.90
7399;DHT22;3740;50.700;7.184;2023-06-19T02:27:38;21.20;99.90
7399;DHT22;3740;50.700;7.184;2023-06-19T02:30:05;21.20;99.90
7399;DHT22;3740;50.700;7.184;2023-06-19T02:32:30;21.10;99.90
7399;DHT22;3740;50.700;7.184;2023-06-19T02:34:57;21.10;99.90
7399;DHT22;3740;50.700;7.184;2023-06-19T02:37:23;21.10;99.90
7399;DHT22;3740;50.700;7.184;2023-06-19T02:39:49;21.00;99.90
7399;DHT22;3740;50.700;7.184;2023-06-19T02:42:14;21.00;99.90
7399;DHT22;3740;50.700;7.184;2023-06-19T02:44:40;20.90;99.90
7399;DHT22;3740;50.700;7.184;2023-06-19T02:47:06;20.90;99.90
7399;DHT22;3740;50.700;7.184;2023-06-19T02:49:31;20.90;99.90
7399;DHT22;3740;50.700;7.184;2023-06-19T02:51:57;20.80;99.90
7399;DHT22;3740;50.700;7.184;2023-06-19T02:54:23;20.80;99.90
7399;DHT22;3740;50.700;7.184;2023-06-19T02:56:48;20.80;99.90
7399;DHT22;3740;50.700;7.184;2023-06-19T02:59:14;20.80;99.90
7399;DHT22;3740;50.700;7.184;2023-06-19T03:01:39;20.80;99.90
7399;DHT22;3740;50.700;7.184;2023-06-19T03:04:05;20.70;99.90
7399;DHT22;3740;50.700;7.184;2023-06-19T03:06:30;20.70;99.90
7399;DHT22;3740;50.700;7.184;2023-06-19T03:08:56;20.70;99.90
7399;DHT22;3740;50.700;7.184;2023-06-19T03:11:22;20.70;99.90
7399;DHT22;3740;50.700;7.184;2023-06-19T03:13:51;20.70;99.90
7399;DHT22;3740;50.700;7.184;2023-06-19T03:16:17;20.60;99.90
7399;DHT22;3740;50.700;7.184;2023-06-19T03:18:44;20.60;99.90
7399;DHT22;3740;50.700;7.184;2023-06-19T03:21:10;20.60;99.90
7399;DHT22;3740;50.700;7.184;2023-06-19T03:23:36;20.60;99.90
7399;DHT22;3740;50.700;7.184;2023-06-19T03:26:02;20.60;99.90
7399;DHT22;3740;50.700;7.184;2023-06-19T03:28:28;20.70;99.90
7399;DHT22;3740;50.700;7.184;2023-06-19T03:30:53;20.70;99.90
7399;DHT22;3740;50.700;7.184;2023-06-19T03:33:19;20.60;99.90
7399;DHT22;3740;50.700;7.184;2023-06-19T03:35:45;20.60;99.90
7399;DHT22;3740;50.700;7.184;2023-06-19T03:38:10;20.60;99.90
7399;DHT22;3740;50.700;7.184;2023-06-19T03:40:36;20.50;99.90
7399;DHT22;3740;50.700;7.184;2023-06-19T03:43:01;20.50;99.90
7399;DHT22;3740;50.700;7.184;2023-06-19T03:45:27;20.40;99.90
7399;DHT22;3740;50.700;7.184;2023-06-19T03:47:53;20.40;99.90
7399;DHT22;3740;50.700;7.184;2023-06-19T03:50:18;20.40;99.90
7399;DHT22;3740;50.700;7.184;2023-06-19T03:52:44;20.40;99.90
7399;DHT22;3740;50.700;7.184;2023-06-19T03:55:09;20.30;99.90
7399;DHT22;3740;50.700;7.184;2023-06-19T03:57:35;20.30;99.90
7399;DHT22;3740;50.700;7.184;2023-06-19T04:00:00;20.30;99.90
7399;DHT22;3740;50.700;7.184;2023-06-19T04:02:26;20.30;99.90
7399;DHT22;3740;50.700;7.184;2023-06-19T04:04:53;20.30;99.90
7399;DHT22;3740;50.700;7.184;2023-06-19T04:07:18;20.40;99.90
7399;DHT22;3740;50.700;7.184;2023-06-19T04:09:44;20.60;99.90
7399;DHT22;3740;50.700;7.184;2023-06-19T04:12:10;20.70;99.90
7399;DHT22;3740;50.700;7.184;2023-06-19T04:14:35;20.80;99.90
7399;DHT22;3740;50.700;7.184;2023-06-19T04:17:01;20.90;99.90
7399;DHT22;3740;50.700;7.184;2023-06-19T04:19:26;20.90;99.90
7399;DHT22;3740;50.700;7.184;2023-06-19T04:21:52;21.00;99.90
7399;DHT22;3740;50.700;7.184;2023-06-19T04:24:20;21.00;99.90
7399;DHT22;3740;50.700;7.184;2023-06-19T04:26:45;21.10;99.90
7399;DHT22;3740;50.700;7.184;2023-06-19T04:29:11;21.10;99.90
7399;DHT22;3740;50.700;7.184;2023-06-19T04:31:45;21.10;99.90
7399;DHT22;3740;50.700;7.184;2023-06-19T04:34:16;21.10;99.90
7399;DHT22;3740;50.700;7.184;2023-06-19T04:36:42;21.10;99.90
7399;DHT22;3740;50.700;7.184;2023-06-19T04:39:08;21.20;99.90
7399;DHT22;3740;50.700;7.184;2023-06-19T04:41:34;21.10;99.90
7399;DHT22;3740;50.700;7.184;2023-06-19T04:44:04;21.10;99.90
7399;DHT22;3740;50.700;7.184;2023-06-19T04:46:30;21.20;99.90
7399;DHT22;3740;50.700;7.184;2023-06-19T04:48:55;21.20;99.90
7399;DHT22;3740;50.700;7.184;2023-06-19T04:51:21;21.20;99.90
7399;DHT22;3740;50.700;7.184;2023-06-19T04:53:49;21.30;99.90
7399;DHT22;3740;50.700;7.184;2023-06-19T04:56:15;21.30;99.90
7399;DHT22;3740;50.700;7.184;2023-06-19T04:58:41;21.30;99.90
7399;DHT22;3740;50.700;7.184;2023-06-19T05:01:15;21.40;99.90
7399;DHT22;3740;50.700;7.184;2023-06-19T05:03:42;21.30;99.90
7399;DHT22;3740;50.700;7.184;2023-06-19T05:06:08;21.30;99.90
7399;DHT22;3740;50.700;7.184;2023-06-19T05:08:34;21.40;99.90
7399;DHT22;3740;50.700;7.184;2023-06-19T05:10:59;21.40;99.90
7399;DHT22;3740;50.700;7.184;2023-06-19T05:13:25;21.40;99.90
7399;DHT22;3740;50.700;7.184;2023-06-19T05:15:50;21.40;99.90
7399;DHT22;3740;50.700;7.184;2023-06-19T05:18:16;21.40;99.90
7399;DHT22;3740;50.700;7.184;2023-06-19T05:20:42;21.50;99.90
7399;DHT22;3740;50.700;7.184;2023-06-19T05:23:08;21.50;99.90
7399;DHT22;3740;50.700;7.184;2023-06-19T05:25:33;21.50;99.90
7399;DHT22;3740;50.700;7.184;2023-06-19T05:27:59;21.50;99.90
7399;DHT22;3740;50.700;7.184;2023-06-19T05:30:24;21.60;99.90
7399;DHT22;3740;50.700;7.184;2023-06-19T05:32:50;21.60;99.90
7399;DHT22;3740;50.700;7.184;2023-06-19T05:35:16;21.60;99.90
7399;DHT22;3740;50.700;7.184;2023-06-19T05:37:41;21.60;99.90
7399;DHT22;3740;50.700;7.184;2023-06-19T05:40:09;21.60;99.90
7399;DHT22;3740;50.700;7.184;2023-06-19T05:42:35;21.60;99.90
7399;DHT22;3740;50.700;7.184;2023-06-19T05:45:02;21.60;99.90
7399;DHT22;3740;50.700;7.184;2023-06-19T05:47:28;21.60;99.90
7399;DHT22;3740;50.700;7.184;2023-06-19T05:49:54;21.60;99.90
7399;DHT22;3740;50.700;7.184;2023-06-19T05:52:20;21.60;99.90
7399;DHT22;3740;50.700;7.184;2023-06-19T05:54:47;21.60;99.90
7399;DHT22;3740;50.700;7.184;2023-06-19T05:57:12;21.60;99.90
7399;DHT22;3740;50.700;7.184;2023-06-19T05:59:40;21.60;99.90
7399;DHT22;3740;50.700;7.184;2023-06-19T06:02:06;21.60;99.90
7399;DHT22;3740;50.700;7.184;2023-06-19T06:04:33;21.60;99.90
7399;DHT22;3740;50.700;7.184;2023-06-19T06:07:00;21.60;99.90
7399;DHT22;3740;50.700;7.184;2023-06-19T06:09:25;21.60;99.90
7399;DHT22;3740;50.700;7.184;2023-06-19T06:11:52;21.60;99.90
7399;DHT22;3740;50.700;7.184;2023-06-19T06:14:18;21.60;99.90
7399;DHT22;3740;50.700;7.184;2023-06-19T06:16:43;21.60;99.90
7399;DHT22;3740;50.700;7.184;2023-06-19T06:19:09;21.70;99.90
7399;DHT22;3740;50.700;7.184;2023-06-19T06:21:34;21.70;99.90
7399;DHT22;3740;50.700;7.184;2023-06-19T06:24:00;21.80;99.90
7399;DHT22;3740;50.700;7.184;2023-06-19T06:26:26;21.80;99.90
7399;DHT22;3740;50.700;7.184;2023-06-19T06:28:53;21.90;99.90
7399;DHT22;3740;50.700;7.184;2023-06-19T06:31:19;21.90;99.90
7399;DHT22;3740;50.700;7.184;2023-06-19T06:33:44;22.00;99.90
7399;DHT22;3740;50.700;7.184;2023-06-19T06:36:10;22.10;99.90
7399;DHT22;3740;50.700;7.184;2023-06-19T06:38:35;22.10;99.90
7399;DHT22;3740;50.700;7.184;2023-06-19T06:41:02;22.20;99.90
7399;DHT22;3740;50.700;7.184;2023-06-19T06:43:27;22.30;99.90
7399;DHT22;3740;50.700;7.184;2023-06-19T06:45:53;22.40;99.90
7399;DHT22;3740;50.700;7.184;2023-06-19T06:48:19;22.40;99.90
7399;DHT22;3740;50.700;7.184;2023-06-19T06:50:44;22.40;99.90
7399;DHT22;3740;50.700;7.184;2023-06-19T06:53:10;22.30;99.90
7399;DHT22;3740;50.700;7.184;2023-06-19T06:55:35;22.40;99.90
7399;DHT22;3740;50.700;7.184;2023-06-19T06:58:01;22.40;99.90
7399;DHT22;3740;50.700;7.184;2023-06-19T07:00:26;22.40;99.90
7399;DHT22;3740;50.700;7.184;2023-06-19T07:02:53;22.50;99.90
7399;DHT22;3740;50.700;7.184;2023-06-19T07:05:18;22.60;99.90
7399;DHT22;3740;50.700;7.184;2023-06-19T07:07:44;22.70;99.90
7399;DHT22;3740;50.700;7.184;2023-06-19T07:10:10;22.70;99.90
7399;DHT22;3740;50.700;7.184;2023-06-19T07:12:43;22.70;99.90
7399;DHT22;3740;50.700;7.184;2023-06-19T07:15:09;22.70;99.90
7399;DHT22;3740;50.700;7.184;2023-06-19T07:17:34;22.80;99.90
7399;DHT22;3740;50.700;7.184;2023-06-19T07:20:00;22.80;99.90
7399;DHT22;3740;50.700;7.184;2023-06-19T07:22:26;22.80;99.90
7399;DHT22;3740;50.700;7.184;2023-06-19T07:24:51;22.90;99.90
7399;DHT22;3740;50.700;7.184;2023-06-19T07:27:17;23.00;99.90
7399;DHT22;3740;50.700;7.184;2023-06-19T07:29:44;23.10;99.90
7399;DHT22;3740;50.700;7.184;2023-06-19T07:32:09;23.30;99.90
7399;DHT22;3740;50.700;7.184;2023-06-19T07:34:36;23.30;99.90
7399;DHT22;3740;50.700;7.184;2023-06-19T07:37:01;23.20;99.90
7399;DHT22;3740;50.700;7.184;2023-06-19T07:39:27;23.10;99.90
7399;DHT22;3740;50.700;7.184;2023-06-19T07:41:52;23.00;99.90
7399;DHT22;3740;50.700;7.184;2023-06-19T07:44:18;22.80;99.90
7399;DHT22;3740;50.700;7.184;2023-06-19T07:46:46;22.90;99.90
7399;DHT22;3740;50.700;7.184;2023-06-19T07:49:11;22.90;99.90
7399;DHT22;3740;50.700;7.184;2023-06-19T07:51:37;22.90;99.90
7399;DHT22;3740;50.700;7.184;2023-06-19T07:54:02;23.00;99.90
7399;DHT22;3740;50.700;7.184;2023-06-19T07:56:28;23.00;99.90
7399;DHT22;3740;50.700;7.184;2023-06-19T07:58:54;23.00;99.90
7399;DHT22;3740;50.700;7.184;2023-06-19T08:01:19;23.20;99.90
7399;DHT22;3740;50.700;7.184;2023-06-19T08:03:45;23.10;99.90
7399;DHT22;3740;50.700;7.184;2023-06-19T08:06:11;23.00;99.90
7399;DHT22;3740;50.700;7.184;2023-06-19T08:08:37;23.00;99.90
7399;DHT22;3740;50.700;7.184;2023-06-19T08:11:03;23.00;99.90
7399;DHT22;3740;50.700;7.184;2023-06-19T08:13:28;23.00;99.90
7399;DHT22;3740;50.700;7.184;2023-06-19T08:15:54;23.00;99.90
7399;DHT22;3740;50.700;7.184;2023-06-19T08:18:19;23.00;99.90
7399;DHT22;3740;50.700;7.184;2023-06-19T08:20:45;23.00;99.90
7399;DHT22;3740;50.700;7.184;2023-06-19T08:23:10;23.00;99.90
7399;DHT22;3740;50.700;7.184;2023-06-19T08:25:36;23.00;99.90
7399;DHT22;3740;50.700;7.184;2023-06-19T08:28:01;22.90;99.90
7399;DHT22;3740;50.700;7.184;2023-06-19T08:30:27;22.90;99.90
7399;DHT22;3740;50.700;7.184;2023-06-19T08:32:53;22.80;99.90
7399;DHT22;3740;50.700;7.184;2023-06-19T08:35:18;22.90;99.90
7399;DHT22;3740;50.700;7.184;2023-06-19T08:37:44;22.80;99.90
7399;DHT22;3740;50.700;7.184;2023-06-19T08:40:11;22.90;99.90
7399;DHT22;3740;50.700;7.184;2023-06-19T08:42:37;22.80;99.90
7399;DHT22;3740;50.700;7.184;2023-06-19T08:45:05;22.90;99.90
7399;DHT22;3740;50.700;7.184;2023-06-19T08:47:32;23.10;99.90
7399;DHT22;3740;50.700;7.184;2023-06-19T08:49:58;23.20;99.90
7399;DHT22;3740;50.700;7.184;2023-06-19T08:52:24;23.20;99.90
7399;DHT22;3740;50.700;7.184;2023-06-19T08:54:49;23.20;99.90
7399;DHT22;3740;50.700;7.184;2023-06-19T08:57:15;23.30;99.90
7399;DHT22;3740;50.700;7.184;2023-06-19T08:59:48;23.40;99.90
7399;DHT22;3740;50.700;7.184;2023-06-19T09:02:14;23.50;99.90
7399;DHT22;3740;50.700;7.184;2023-06-19T09:04:40;23.50;99.90
7399;DHT22;3740;50.700;7.184;2023-06-19T09:07:07;23.60;99.90
7399;DHT22;3740;50.700;7.184;2023-06-19T09:09:33;23.70;99.90
7399;DHT22;3740;50.700;7.184;2023-06-19T09:12:07;23.80;99.90
7399;DHT22;3740;50.700;7.184;2023-06-19T09:14:37;24.10;99.90
7399;DHT22;3740;50.700;7.184;2023-06-19T09:17:04;24.30;99.90
7399;DHT22;3740;50.700;7.184;2023-06-19T09:19:30;24.40;99.90
7399;DHT22;3740;50.700;7.184;2023-06-19T09:22:05;24.30;99.90
7399;DHT22;3740;50.700;7.184;2023-06-19T09:24:39;24.20;99.90
7399;DHT22;3740;50.700;7.184;2023-06-19T09:27:11;24.20;99.90
7399;DHT22;3740;50.700;7.184;2023-06-19T09:29:39;23.90;99.90
7399;DHT22;3740;50.700;7.184;2023-06-19T09:34:44;23.80;99.90
7399;DHT22;3740;50.700;7.184;2023-06-19T09:37:09;23.80;99.90
7399;DHT22;3740;50.700;7.184;2023-06-19T09:39:39;23.90;99.90
7399;DHT22;3740;50.700;7.184;2023-06-19T09:42:09;23.80;99.90
7399;DHT22;3740;50.700;7.184;2023-06-19T09:44:42;23.80;99.90
7399;DHT22;3740;50.700;7.184;2023-06-19T09:47:38;23.90;99.90
7399;DHT22;3740;50.700;7.184;2023-06-19T09:50:04;24.00;99.90
7399;DHT22;3740;50.700;7.184;2023-06-19T09:52:31;24.10;99.90
7399;DHT22;3740;50.700;7.184;2023-06-19T09:54:57;24.10;99.90
7399;DHT22;3740;50.700;7.184;2023-06-19T09:57:24;24.10;99.90
7399;DHT22;3740;50.700;7.184;2023-06-19T09:59:53;24.00;99.90
7399;DHT22;3740;50.700;7.184;2023-06-19T10:02:20;24.00;99.90
7399;DHT22;3740;50.700;7.184;2023-06-19T10:04:52;24.00;99.90
7399;DHT22;3740;50.700;7.184;2023-06-19T10:07:21;24.10;99.90
7399;DHT22;3740;50.700;7.184;2023-06-19T10:10:07;24.30;99.90
7399;DHT22;3740;50.700;7.184;2023-06-19T10:12:41;24.40;99.90
7399;DHT22;3740;50.700;7.184;2023-06-19T10:17:37;24.50;99.90
7399;DHT22;3740;50.700;7.184;2023-06-19T10:20:03;24.50;99.90
7399;DHT22;3740;50.700;7.184;2023-06-19T10:22:32;24.60;99.90
7399;DHT22;3740;50.700;7.184;2023-06-19T10:24:58;24.90;99.90
7399;DHT22;3740;50.700;7.184;2023-06-19T10:27:24;25.10;99.90
7399;DHT22;3740;50.700;7.184;2023-06-19T10:29:54;25.10;99.90
7399;DHT22;3740;50.700;7.184;2023-06-19T10:32:20;25.10;99.90
7399;DHT22;3740;50.700;7.184;2023-06-19T10:34:47;25.20;99.90
7399;DHT22;3740;50.700;7.184;2023-06-19T10:37:14;25.40;99.90
7399;DHT22;3740;50.700;7.184;2023-06-19T10:39:40;25.70;99.90
7399;DHT22;3740;50.700;7.184;2023-06-19T10:42:07;26.00;99.90
7399;DHT22;3740;50.700;7.184;2023-06-19T10:44:34;26.10;99.90
7399;DHT22;3740;50.700;7.184;2023-06-19T10:47:00;26.10;99.90
7399;DHT22;3740;50.700;7.184;2023-06-19T10:49:26;26.30;99.90
7399;DHT22;3740;50.700;7.184;2023-06-19T10:51:52;26.30;99.90
7399;DHT22;3740;50.700;7.184;2023-06-19T10:54:33;26.40;99.90
7399;DHT22;3740;50.700;7.184;2023-06-19T10:56:58;26.60;99.90
7399;DHT22;3740;50.700;7.184;2023-06-19T10:59:28;26.70;99.90
7399;DHT22;3740;50.700;7.184;2023-06-19T11:01:54;26.90;99.90
7399;DHT22;3740;50.700;7.184;2023-06-19T11:04:20;27.50;99.90
7399;DHT22;3740;50.700;7.184;2023-06-19T11:06:49;27.80;98.90
7399;DHT22;3740;50.700;7.184;2023-06-19T11:09:14;28.30;98.40
7399;DHT22;3740;50.700;7.184;2023-06-19T11:11:47;28.90;97.70
7399;DHT22;3740;50.700;7.184;2023-06-19T11:14:15;30.40;93.50
7399;DHT22;3740;50.700;7.184;2023-06-19T11:16:42;30.80;88.40
7399;DHT22;3740;50.700;7.184;2023-06-19T11:19:09;32.60;83.20
7399;DHT22;3740;50.700;7.184;2023-06-19T11:21:36;34.20;74.70
7399;DHT22;3740;50.700;7.184;2023-06-19T11:24:05;35.10;67.50
7399;DHT22;3740;50.700;7.184;2023-06-19T11:26:35;36.30;65.80
7399;DHT22;3740;50.700;7.184;2023-06-19T11:29:01;37.20;60.70
7399;DHT22;3740;50.700;7.184;2023-06-19T11:31:28;36.20;58.00
7399;DHT22;3740;50.700;7.184;2023-06-19T11:33:58;35.50;58.00
7399;DHT22;3740;50.700;7.184;2023-06-19T11:36:24;35.00;58.70
7399;DHT22;3740;50.700;7.184;2023-06-19T11:38:51;35.70;55.90
7399;DHT22;3740;50.700;7.184;2023-06-19T11:41:25;36.20;54.50
7399;DHT22;3740;50.700;7.184;2023-06-19T11:44:02;35.40;55.00
7399;DHT22;3740;50.700;7.184;2023-06-19T11:46:32;35.70;55.80
7399;DHT22;3740;50.700;7.184;2023-06-19T11:49:14;36.00;54.10
7399;DHT22;3740;50.700;7.184;2023-06-19T11:51:40;36.00;55.10
7399;DHT22;3740;50.700;7.184;2023-06-19T11:54:07;36.20;54.10
7399;DHT22;3740;50.700;7.184;2023-06-19T11:56:34;37.30;51.40
7399;DHT22;3740;50.700;7.184;2023-06-19T11:59:01;37.90;51.40
7399;DHT22;3740;50.700;7.184;2023-06-19T12:01:27;37.60;50.90
7399;DHT22;3740;50.700;7.184;2023-06-19T12:03:52;37.40;51.40
7399;DHT22;3740;50.700;7.184;2023-06-19T12:06:18;37.50;51.10
7399;DHT22;3740;50.700;7.184;2023-06-19T12:08:44;37.10;51.70
7399;DHT22;3740;50.700;7.184;2023-06-19T12:11:10;37.50;51.70
7399;DHT22;3740;50.700;7.184;2023-06-19T12:13:36;38.30;52.10
7399;DHT22;3740;50.700;7.184;2023-06-19T12:16:01;38.90;49.60
7399;DHT22;3740;50.700;7.184;2023-06-19T12:18:27;39.50;47.60
7399;DHT22;3740;50.700;7.184;2023-06-19T12:20:53;40.00;47.00
7399;DHT22;3740;50.700;7.184;2023-06-19T12:23:18;39.80;47.20
7399;DHT22;3740;50.700;7.184;2023-06-19T12:25:44;40.30;45.60
7399;DHT22;3740;50.700;7.184;2023-06-19T12:28:10;39.80;46.80
7399;DHT22;3740;50.700;7.184;2023-06-19T12:30:37;40.30;46.20
7399;DHT22;3740;50.700;7.184;2023-06-19T12:33:02;40.60;46.60
7399;DHT22;3740;50.700;7.184;2023-06-19T12:35:29;41.30;45.70
7399;DHT22;3740;50.700;7.184;2023-06-19T12:37:54;41.30;44.60
7399;DHT22;3740;50.700;7.184;2023-06-19T12:40:20;41.20;45.00
7399;DHT22;3740;50.700;7.184;2023-06-19T12:42:46;40.80;44.20
7399;DHT22;3740;50.700;7.184;2023-06-19T12:45:12;41.30;45.30
7399;DHT22;3740;50.700;7.184;2023-06-19T12:47:38;41.00;45.40
7399;DHT22;3740;50.700;7.184;2023-06-19T12:50:04;40.80;45.70
7399;DHT22;3740;50.700;7.184;2023-06-19T12:52:29;40.80;44.80
7399;DHT22;3740;50.700;7.184;2023-06-19T12:54:56;40.30;44.10
7399;DHT22;3740;50.700;7.184;2023-06-19T12:57:22;39.20;46.20
7399;DHT22;3740;50.700;7.184;2023-06-19T12:59:48;40.00;45.90
7399;DHT22;3740;50.700;7.184;2023-06-19T13:02:13;40.50;45.20
7399;DHT22;3740;50.700;7.184;2023-06-19T13:04:39;39.80;44.90
7399;DHT22;3740;50.700;7.184;2023-06-19T13:07:04;40.40;45.60
7399;DHT22;3740;50.700;7.184;2023-06-19T13:09:30;40.80;45.30
7399;DHT22;3740;50.700;7.184;2023-06-19T13:11:55;40.90;44.30
7399;DHT22;3740;50.700;7.184;2023-06-19T13:14:21;41.00;44.40
7399;DHT22;3740;50.700;7.184;2023-06-19T13:16:47;40.90;44.40
7399;DHT22;3740;50.700;7.184;2023-06-19T13:19:16;40.10;44.00
7399;DHT22;3740;50.700;7.184;2023-06-19T13:21:42;40.40;44.70
7399;DHT22;3740;50.700;7.184;2023-06-19T13:24:07;39.80;43.90
7399;DHT22;3740;50.700;7.184;2023-06-19T13:26:33;37.40;45.20
7399;DHT22;3740;50.700;7.184;2023-06-19T13:28:58;35.80;47.70
7399;DHT22;3740;50.700;7.184;2023-06-19T13:31:26;35.40;48.60
7399;DHT22;3740;50.700;7.184;2023-06-19T13:33:52;35.40;48.90
7399;DHT22;3740;50.700;7.184;2023-06-19T13:36:17;34.80;49.40
7399;DHT22;3740;50.700;7.184;2023-06-19T13:38:45;34.50;50.70
7399;DHT22;3740;50.700;7.184;2023-06-19T13:41:10;34.10;52.30
7399;DHT22;3740;50.700;7.184;2023-06-19T13:43:37;34.00;53.20
7399;DHT22;3740;50.700;7.184;2023-06-19T13:46:05;34.10;50.80
7399;DHT22;3740;50.700;7.184;2023-06-19T13:48:31;34.10;50.60
7399;DHT22;3740;50.700;7.184;2023-06-19T13:50:58;33.80;51.50
7399;DHT22;3740;50.700;7.184;2023-06-19T13:53:24;33.20;51.10
7399;DHT22;3740;50.700;7.184;2023-06-19T13:55:50;32.80;52.70
7399;DHT22;3740;50.700;7.184;2023-06-19T13:58:16;32.50;53.50
7399;DHT22;3740;50.700;7.184;2023-06-19T14:00:41;31.80;53.20
7399;DHT22;3740;50.700;7.184;2023-06-19T14:03:07;31.50;53.70
7399;DHT22;3740;50.700;7.184;2023-06-19T14:05:33;31.80;54.00
7399;DHT22;3740;50.700;7.184;2023-06-19T14:07:59;32.20;54.30
7399;DHT22;3740;50.700;7.184;2023-06-19T14:10:25;32.80;54.40
7399;DHT22;3740;50.700;7.184;2023-06-19T14:12:50;33.00;53.10
7399;DHT22;3740;50.700;7.184;2023-06-19T14:15:16;32.80;52.60
7399;DHT22;3740;50.700;7.184;2023-06-19T14:17:41;32.50;53.10
7399;DHT22;3740;50.700;7.184;2023-06-19T14:20:10;32.40;52.90
7399;DHT22;3740;50.700;7.184;2023-06-19T14:22:35;32.80;52.30
7399;DHT22;3740;50.700;7.184;2023-06-19T14:25:01;32.90;53.90
7399;DHT22;3740;50.700;7.184;2023-06-19T14:27:27;33.50;53.60
7399;DHT22;3740;50.700;7.184;2023-06-19T14:29:54;33.40;52.70
7399;DHT22;3740;50.700;7.184;2023-06-19T14:32:21;33.10;51.20
7399;DHT22;3740;50.700;7.184;2023-06-19T14:34:46;33.40;51.10
7399;DHT22;3740;50.700;7.184;2023-06-19T14:37:12;33.20;52.50
7399;DHT22;3740;50.700;7.184;2023-06-19T14:39:38;33.10;52.70
7399;DHT22;3740;50.700;7.184;2023-06-19T14:42:05;33.60;52.80
7399;DHT22;3740;50.700;7.184;2023-06-19T14:44:30;33.90;53.40
7399;DHT22;3740;50.700;7.184;2023-06-19T14:46:58;33.70;50.50
7399;DHT22;3740;50.700;7.184;2023-06-19T14:49:23;33.50;52.80
7399;DHT22;3740;50.700;7.184;2023-06-19T14:51:49;33.20;51.60
7399;DHT22;3740;50.700;7.184;2023-06-19T14:54:14;32.80;52.90
7399;DHT22;3740;50.700;7.184;2023-06-19T14:56:45;32.50;53.30
7399;DHT22;3740;50.700;7.184;2023-06-19T14:59:14;32.10;53.30
7399;DHT22;3740;50.700;7.184;2023-06-19T15:01:39;31.70;53.70
7399;DHT22;3740;50.700;7.184;2023-06-19T15:04:05;31.70;54.20
7399;DHT22;3740;50.700;7.184;2023-06-19T15:06:31;31.50;55.70
7399;DHT22;3740;50.700;7.184;2023-06-19T15:08:57;30.90;56.20
7399;DHT22;3740;50.700;7.184;2023-06-19T15:11:23;30.80;56.20
7399;DHT22;3740;50.700;7.184;2023-06-19T15:13:48;30.50;56.70
7399;DHT22;3740;50.700;7.184;2023-06-19T15:16:14;30.70;57.50
7399;DHT22;3740;50.700;7.184;2023-06-19T15:18:43;30.40;57.10
7399;DHT22;3740;50.700;7.184;2023-06-19T15:21:08;30.00;59.10
7399;DHT22;3740;50.700;7.184;2023-06-19T15:23:34;30.10;58.20
7399;DHT22;3740;50.700;7.184;2023-06-19T15:26:00;29.70;60.00
7399;DHT22;3740;50.700;7.184;2023-06-19T15:28:26;29.60;59.00
7399;DHT22;3740;50.700;7.184;2023-06-19T15:30:51;29.80;60.00
7399;DHT22;3740;50.700;7.184;2023-06-19T15:33:17;29.70;59.30
7399;DHT22;3740;50.700;7.184;2023-06-19T15:35:42;29.40;60.90
7399;DHT22;3740;50.700;7.184;2023-06-19T15:38:08;29.60;59.50
7399;DHT22;3740;50.700;7.184;2023-06-19T15:40:33;29.70;59.30
7399;DHT22;3740;50.700;7.184;2023-06-19T15:42:59;29.80;59.50
7399;DHT22;3740;50.700;7.184;2023-06-19T15:45:25;29.80;59.10
7399;DHT22;3740;50.700;7.184;2023-06-19T15:47:50;29.60;60.50
7399;DHT22;3740;50.700;7.184;2023-06-19T15:50:16;29.40;60.20
7399;DHT22;3740;50.700;7.184;2023-06-19T15:52:42;29.50;59.40
7399;DHT22;3740;50.700;7.184;2023-06-19T15:55:07;29.60;62.60
7399;DHT22;3740;50.700;7.184;2023-06-19T15:57:33;29.50;62.40
7399;DHT22;3740;50.700;7.184;2023-06-19T15:59:59;29.40;59.80
7399;DHT22;3740;50.700;7.184;2023-06-19T16:02:24;29.40;61.50